sensor_id;sensor_type;location;lat;lon;timestamp;temperature;humidity
5808;DHT22;2930;42.678;23.312;2023-05-16T00:00:50;14.60;94.30
5808;DHT22;2930;42.678;23.312;2023-05-16T00:03:18;14.60;93.90
5808;DHT22;2930;42.678;23.312;2023-05-16T00:05:43;14.60;94.20
5808;DHT22;2930;42.678;23.312;2023-05-16T00:08:10;14.60;94.10
5808;DHT22;2930;42.678;23.312;2023-05-16T00:10:35;14.50;94.30
5808;DHT22;2930;42.678;23.312;2023-05-16T00:13:01;14.50;94.30
5808;DHT22;2930;42.678;23.312;2023-05-16T00:15:27;14.50;94.10
5808;DHT22;2930;42.678;23.312;2023-05-16T00:17:54;14.60;94.10
5808;DHT22;2930;42.678;23.312;2023-05-16T00:20:23;14.50;94.40
5808;DHT22;2930;42.678;23.312;2023-05-16T00:22:49;14.50;94.30
5808;DHT22;2930;42.678;23.312;2023-05-16T00:25:16;14.50;94.30
5808;DHT22;2930;42.678;23.312;2023-05-16T00:27:41;14.50;94.30
5808;DHT22;2930;42.678;23.312;2023-05-16T00:30:07;14.50;94.20
5808;DHT22;2930;42.678;23.312;2023-05-16T00:32:33;14.50;94.60
5808;DHT22;2930;42.678;23.312;2023-05-16T00:34:58;14.50;94.40
5808;DHT22;2930;42.678;23.312;2023-05-16T00:37:24;14.50;94.30
5808;DHT22;2930;42.678;23.312;2023-05-16T00:39:49;14.50;94.40
5808;DHT22;2930;42.678;23.312;2023-05-16T00:42:15;14.50;94.50
5808;DHT22;2930;42.678;23.312;2023-05-16T00:44:41;14.50;94.70
5808;DHT22;2930;42.678;23.312;2023-05-16T00:47:06;14.40;95.00
5808;DHT22;2930;42.678;23.312;2023-05-16T00:49:32;14.40;95.60
5808;DHT22;2930;42.678;23.312;2023-05-16T00:51:58;14.30;95.90
5808;DHT22;2930;42.678;23.312;2023-05-16T00:54:23;14.30;95.90
5808;DHT22;2930;42.678;23.312;2023-05-16T00:56:51;14.30;95.80
5808;DHT22;2930;42.678;23.312;2023-05-16T00:59:17;14.40;95.40
5808;DHT22;2930;42.678;23.312;2023-05-16T01:01:44;14.40;95.40
5808;DHT22;2930;42.678;23.312;2023-05-16T01:04:10;14.40;95.60
5808;DHT22;2930;42.678;23.312;2023-05-16T01:06:36;14.40;95.40
5808;DHT22;2930;42.678;23.312;2023-05-16T01:09:02;14.40;95.40
5808;DHT22;2930;42.678;23.312;2023-05-16T01:19:55;14.40;95.00
5808;DHT22;2930;42.678;23.312;2023-05-16T01:25:10;14.50;94.60
5808;DHT22;2930;42.678;23.312;2023-05-16T01:27:42;14.50;94.70
5808;DHT22;2930;42.678;23.312;2023-05-16T01:30:12;14.50;94.60
5808;DHT22;2930;42.678;23.312;2023-05-16T01:32:38;14.40;94.80
5808;DHT22;2930;42.678;23.312;2023-05-16T01:35:04;14.40;94.90
5808;DHT22;2930;42.678;23.312;2023-05-16T01:37:33;14.40;94.80
5808;DHT22;2930;42.678;23.312;2023-05-16T01:40:03;14.40;95.00
5808;DHT22;2930;42.678;23.312;2023-05-16T01:42:32;14.40;95.00
5808;DHT22;2930;42.678;23.312;2023-05-16T01:45:00;14.40;94.90
5808;DHT22;2930;42.678;23.312;2023-05-16T01:47:27;14.40;94.90
5808;DHT22;2930;42.678;23.312;2023-05-16T01:50:01;14.40;94.80
5808;DHT22;2930;42.678;23.312;2023-05-16T01:52:34;14.40;94.70
5808;DHT22;2930;42.678;23.312;2023-05-16T01:55:02;14.30;95.00
5808;DHT22;2930;42.678;23.312;2023-05-16T01:57:29;14.30;95.20
5808;DHT22;2930;42.678;23.312;2023-05-16T01:59:56;14.30;95.40
5808;DHT22;2930;42.678;23.312;2023-05-16T02:02:23;14.30;95.50
5808;DHT22;2930;42.678;23.312;2023-05-16T02:04:49;14.30;95.20
5808;DHT22;2930;42.678;23.312;2023-05-16T02:07:14;14.30;95.50
5808;DHT22;2930;42.678;23.312;2023-05-16T02:09:40;14.20;96.00
5808;DHT22;2930;42.678;23.312;2023-05-16T02:12:06;14.10;96.40
5808;DHT22;2930;42.678;23.312;2023-05-16T02:14:31;14.10;96.30
5808;DHT22;2930;42.678;23.312;2023-05-16T02:16:57;14.10;96.30
5808;DHT22;2930;42.678;23.312;2023-05-16T02:19:22;14.20;96.10
5808;DHT22;2930;42.678;23.312;2023-05-16T02:21:48;14.20;95.90
5808;DHT22;2930;42.678;23.312;2023-05-16T02:24:14;14.20;95.60
5808;DHT22;2930;42.678;23.312;2023-05-16T02:26:39;14.30;95.40
5808;DHT22;2930;42.678;23.312;2023-05-16T02:29:05;14.30;95.50
5808;DHT22;2930;42.678;23.312;2023-05-16T02:31:31;14.30;95.50
5808;DHT22;2930;42.678;23.312;2023-05-16T02:33:57;14.20;95.60
5808;DHT22;2930;42.678;23.312;2023-05-16T02:36:23;14.20;95.80
5808;DHT22;2930;42.678;23.312;2023-05-16T02:38:49;14.20;95.70
5808;DHT22;2930;42.678;23.312;2023-05-16T02:41:14;14.20;95.10
5808;DHT22;2930;42.678;23.312;2023-05-16T02:43:40;14.30;95.00
5808;DHT22;2930;42.678;23.312;2023-05-16T02:46:21;14.30;94.60
5808;DHT22;2930;42.678;23.312;2023-05-16T02:48:48;14.40;94.60
5808;DHT22;2930;42.678;23.312;2023-05-16T02:51:13;14.40;94.40
5808;DHT22;2930;42.678;23.312;2023-05-16T02:53:39;14.30;94.60
5808;DHT22;2930;42.678;23.312;2023-05-16T02:56:04;14.30;94.80
5808;DHT22;2930;42.678;23.312;2023-05-16T02:58:31;14.30;94.90
5808;DHT22;2930;42.678;23.312;2023-05-16T03:00:57;14.40;94.50
5808;DHT22;2930;42.678;23.312;2023-05-16T03:03:22;14.40;94.40
5808;DHT22;2930;42.678;23.312;2023-05-16T03:05:48;14.40;94.20
5808;DHT22;2930;42.678;23.312;2023-05-16T03:08:14;14.40;94.40
5808;DHT22;2930;42.678;23.312;2023-05-16T03:10:39;14.40;94.40
5808;DHT22;2930;42.678;23.312;2023-05-16T03:13:05;14.40;94.60
5808;DHT22;2930;42.678;23.312;2023-05-16T03:15:30;14.40;94.50
5808;DHT22;2930;42.678;23.312;2023-05-16T03:17:56;14.40;94.30
5808;DHT22;2930;42.678;23.312;2023-05-16T03:20:21;14.30;95.30
5808;DHT22;2930;42.678;23.312;2023-05-16T03:22:47;14.20;96.10
5808;DHT22;2930;42.678;23.312;2023-05-16T03:25:12;14.00;96.90
5808;DHT22;2930;42.678;23.312;2023-05-16T03:27:38;14.00;97.30
5808;DHT22;2930;42.678;23.312;2023-05-16T03:30:03;14.00;96.70
5808;DHT22;2930;42.678;23.312;2023-05-16T03:32:30;14.10;95.80
5808;DHT22;2930;42.678;23.312;2023-05-16T03:34:55;14.10;96.10
5808;DHT22;2930;42.678;23.312;2023-05-16T03:37:21;14.00;96.40
5808;DHT22;2930;42.678;23.312;2023-05-16T03:39:46;14.10;95.90
5808;DHT22;2930;42.678;23.312;2023-05-16T03:42:12;14.10;95.70
5808;DHT22;2930;42.678;23.312;2023-05-16T03:44:37;14.10;96.20
5808;DHT22;2930;42.678;23.312;2023-05-16T03:47:03;14.00;96.90
5808;DHT22;2930;42.678;23.312;2023-05-16T03:49:29;14.10;96.30
5808;DHT22;2930;42.678;23.312;2023-05-16T03:51:54;14.20;96.10
5808;DHT22;2930;42.678;23.312;2023-05-16T03:54:20;14.10;96.50
5808;DHT22;2930;42.678;23.312;2023-05-16T03:56:46;14.10;96.90
5808;DHT22;2930;42.678;23.312;2023-05-16T03:59:12;14.10;96.60
5808;DHT22;2930;42.678;23.312;2023-05-16T04:01:37;14.10;96.40
5808;DHT22;2930;42.678;23.312;2023-05-16T04:04:03;14.10;96.20
5808;DHT22;2930;42.678;23.312;2023-05-16T04:06:29;14.10;96.10
5808;DHT22;2930;42.678;23.312;2023-05-16T04:08:54;14.20;96.00
5808;DHT22;2930;42.678;23.312;2023-05-16T04:11:20;14.20;95.90
5808;DHT22;2930;42.678;23.312;2023-05-16T04:13:46;14.20;95.90
5808;DHT22;2930;42.678;23.312;2023-05-16T04:16:11;14.30;95.60
5808;DHT22;2930;42.678;23.312;2023-05-16T04:18:37;14.30;95.60
5808;DHT22;2930;42.678;23.312;2023-05-16T04:21:02;14.30;95.80
5808;DHT22;2930;42.678;23.312;2023-05-16T04:23:28;14.40;95.20
5808;DHT22;2930;42.678;23.312;2023-05-16T04:25:54;14.40;95.20
5808;DHT22;2930;42.678;23.312;2023-05-16T04:28:21;14.40;95.00
5808;DHT22;2930;42.678;23.312;2023-05-16T04:30:46;14.50;95.00
5808;DHT22;2930;42.678;23.312;2023-05-16T04:33:12;14.50;95.00
5808;DHT22;2930;42.678;23.312;2023-05-16T04:35:38;14.50;94.80
5808;DHT22;2930;42.678;23.312;2023-05-16T04:38:04;14.60;94.50
5808;DHT22;2930;42.678;23.312;2023-05-16T04:40:29;14.60;94.50
5808;DHT22;2930;42.678;23.312;2023-05-16T04:42:55;14.70;93.90
5808;DHT22;2930;42.678;23.312;2023-05-16T04:45:20;14.70;93.90
5808;DHT22;2930;42.678;23.312;2023-05-16T04:47:46;14.80;93.50
5808;DHT22;2930;42.678;23.312;2023-05-16T04:50:12;14.80;93.70
5808;DHT22;2930;42.678;23.312;2023-05-16T04:52:37;14.80;93.50
5808;DHT22;2930;42.678;23.312;2023-05-16T04:55:03;14.90;93.50
5808;DHT22;2930;42.678;23.312;2023-05-16T04:57:29;14.90;93.50
5808;DHT22;2930;42.678;23.312;2023-05-16T04:59:54;14.90;93.40
5808;DHT22;2930;42.678;23.312;2023-05-16T05:02:20;14.90;93.40
5808;DHT22;2930;42.678;23.312;2023-05-16T05:04:45;14.90;93.30
5808;DHT22;2930;42.678;23.312;2023-05-16T05:07:11;14.90;93.80
5808;DHT22;2930;42.678;23.312;2023-05-16T05:09:36;14.90;93.60
5808;DHT22;2930;42.678;23.312;2023-05-16T05:12:02;14.90;93.50
5808;DHT22;2930;42.678;23.312;2023-05-16T05:14:28;14.90;93.30
5808;DHT22;2930;42.678;23.312;2023-05-16T05:16:53;14.90;93.30
5808;DHT22;2930;42.678;23.312;2023-05-16T05:19:19;14.90;93.60
5808;DHT22;2930;42.678;23.312;2023-05-16T05:21:45;15.00;93.60
5808;DHT22;2930;42.678;23.312;2023-05-16T05:24:10;15.00;93.50
5808;DHT22;2930;42.678;23.312;2023-05-16T05:26:36;15.00;93.20
5808;DHT22;2930;42.678;23.312;2023-05-16T05:29:01;15.00;93.30
5808;DHT22;2930;42.678;23.312;2023-05-16T05:31:27;15.00;93.50
5808;DHT22;2930;42.678;23.312;2023-05-16T05:33:52;15.00;93.50
5808;DHT22;2930;42.678;23.312;2023-05-16T05:36:19;15.00;93.70
5808;DHT22;2930;42.678;23.312;2023-05-16T05:38:44;14.90;93.60
5808;DHT22;2930;42.678;23.312;2023-05-16T05:41:10;15.00;93.60
5808;DHT22;2930;42.678;23.312;2023-05-16T05:43:36;15.00;93.50
5808;DHT22;2930;42.678;23.312;2023-05-16T05:46:01;15.10;93.50
5808;DHT22;2930;42.678;23.312;2023-05-16T05:48:27;15.10;93.30
5808;DHT22;2930;42.678;23.312;2023-05-16T05:50:54;15.10;93.30
5808;DHT22;2930;42.678;23.312;2023-05-16T05:53:20;15.20;93.20
5808;DHT22;2930;42.678;23.312;2023-05-16T05:55:45;15.20;93.20
5808;DHT22;2930;42.678;23.312;2023-05-16T05:58:11;15.20;92.90
5808;DHT22;2930;42.678;23.312;2023-05-16T06:00:37;15.20;92.70
5808;DHT22;2930;42.678;23.312;2023-05-16T06:03:03;15.30;92.90
5808;DHT22;2930;42.678;23.312;2023-05-16T06:05:29;15.30;92.80
5808;DHT22;2930;42.678;23.312;2023-05-16T06:07:54;15.30;93.00
5808;DHT22;2930;42.678;23.312;2023-05-16T06:10:20;15.30;92.80
5808;DHT22;2930;42.678;23.312;2023-05-16T06:12:45;15.30;92.60
5808;DHT22;2930;42.678;23.312;2023-05-16T06:15:11;15.40;92.70
5808;DHT22;2930;42.678;23.312;2023-05-16T06:17:36;15.40;92.50
5808;DHT22;2930;42.678;23.312;2023-05-16T06:20:03;15.40;92.60
5808;DHT22;2930;42.678;23.312;2023-05-16T06:22:29;15.50;92.60
5808;DHT22;2930;42.678;23.312;2023-05-16T06:24:55;15.50;92.30
5808;DHT22;2930;42.678;23.312;2023-05-16T06:27:20;15.50;92.10
5808;DHT22;2930;42.678;23.312;2023-05-16T06:29:46;15.50;92.00
5808;DHT22;2930;42.678;23.312;2023-05-16T06:32:11;15.50;91.90
5808;DHT22;2930;42.678;23.312;2023-05-16T06:34:37;15.60;91.40
5808;DHT22;2930;42.678;23.312;2023-05-16T06:37:02;15.50;91.30
5808;DHT22;2930;42.678;23.312;2023-05-16T06:39:28;15.50;91.20
5808;DHT22;2930;42.678;23.312;2023-05-16T06:41:53;15.50;91.10
5808;DHT22;2930;42.678;23.312;2023-05-16T06:44:19;15.50;91.20
5808;DHT22;2930;42.678;23.312;2023-05-16T06:46:45;15.50;90.90
5808;DHT22;2930;42.678;23.312;2023-05-16T06:49:10;15.50;90.70
5808;DHT22;2930;42.678;23.312;2023-05-16T06:51:36;15.60;90.30
5808;DHT22;2930;42.678;23.312;2023-05-16T06:54:01;15.70;90.30
5808;DHT22;2930;42.678;23.312;2023-05-16T06:56:27;15.70;89.70
5808;DHT22;2930;42.678;23.312;2023-05-16T06:58:53;15.70;89.40
5808;DHT22;2930;42.678;23.312;2023-05-16T07:01:18;15.80;89.60
5808;DHT22;2930;42.678;23.312;2023-05-16T07:03:44;15.80;89.40
5808;DHT22;2930;42.678;23.312;2023-05-16T07:06:09;15.90;89.00
5808;DHT22;2930;42.678;23.312;2023-05-16T07:08:35;15.90;88.60
5808;DHT22;2930;42.678;23.312;2023-05-16T07:11:01;16.00;88.60
5808;DHT22;2930;42.678;23.312;2023-05-16T07:13:27;16.00;88.60
5808;DHT22;2930;42.678;23.312;2023-05-16T07:15:52;16.10;88.30
5808;DHT22;2930;42.678;23.312;2023-05-16T07:18:18;16.20;88.30
5808;DHT22;2930;42.678;23.312;2023-05-16T07:20:44;16.20;88.10
5808;DHT22;2930;42.678;23.312;2023-05-16T07:23:10;16.20;87.50
5808;DHT22;2930;42.678;23.312;2023-05-16T07:25:35;16.30;87.60
5808;DHT22;2930;42.678;23.312;2023-05-16T07:28:01;16.40;87.50
5808;DHT22;2930;42.678;23.312;2023-05-16T07:30:27;16.40;87.30
5808;DHT22;2930;42.678;23.312;2023-05-16T07:32:52;16.40;87.50
5808;DHT22;2930;42.678;23.312;2023-05-16T07:35:18;16.50;87.30
5808;DHT22;2930;42.678;23.312;2023-05-16T07:37:43;16.50;87.70
5808;DHT22;2930;42.678;23.312;2023-05-16T07:40:09;16.60;87.70
5808;DHT22;2930;42.678;23.312;2023-05-16T07:42:35;16.60;87.60
5808;DHT22;2930;42.678;23.312;2023-05-16T07:45:01;16.70;87.70
5808;DHT22;2930;42.678;23.312;2023-05-16T07:47:26;16.70;87.00
5808;DHT22;2930;42.678;23.312;2023-05-16T07:49:52;16.70;86.90
5808;DHT22;2930;42.678;23.312;2023-05-16T07:52:18;16.80;87.00
5808;DHT22;2930;42.678;23.312;2023-05-16T07:54:45;16.80;87.30
5808;DHT22;2930;42.678;23.312;2023-05-16T07:57:12;16.80;87.40
5808;DHT22;2930;42.678;23.312;2023-05-16T07:59:38;16.90;87.30
5808;DHT22;2930;42.678;23.312;2023-05-16T08:02:03;16.90;86.80
5808;DHT22;2930;42.678;23.312;2023-05-16T08:04:29;17.00;85.90
5808;DHT22;2930;42.678;23.312;2023-05-16T08:06:54;16.90;85.10
5808;DHT22;2930;42.678;23.312;2023-05-16T08:09:20;17.00;85.90
5808;DHT22;2930;42.678;23.312;2023-05-16T08:11:45;17.00;85.10
5808;DHT22;2930;42.678;23.312;2023-05-16T08:14:11;17.00;85.10
5808;DHT22;2930;42.678;23.312;2023-05-16T08:16:37;17.10;85.30
5808;DHT22;2930;42.678;23.312;2023-05-16T08:19:02;17.10;85.20
5808;DHT22;2930;42.678;23.312;2023-05-16T08:21:28;17.10;85.60
5808;DHT22;2930;42.678;23.312;2023-05-16T08:23:53;17.20;85.50
5808;DHT22;2930;42.678;23.312;2023-05-16T08:26:20;17.30;85.60
5808;DHT22;2930;42.678;23.312;2023-05-16T08:28:46;17.40;85.40
5808;DHT22;2930;42.678;23.312;2023-05-16T08:31:12;17.40;85.40
5808;DHT22;2930;42.678;23.312;2023-05-16T08:33:37;17.50;85.10
5808;DHT22;2930;42.678;23.312;2023-05-16T08:36:03;17.60;84.70
5808;DHT22;2930;42.678;23.312;2023-05-16T08:38:28;17.60;84.50
5808;DHT22;2930;42.678;23.312;2023-05-16T08:40:54;17.60;84.60
5808;DHT22;2930;42.678;23.312;2023-05-16T08:43:20;17.70;84.50
5808;DHT22;2930;42.678;23.312;2023-05-16T08:45:46;17.70;84.70
5808;DHT22;2930;42.678;23.312;2023-05-16T08:48:11;17.80;84.50
5808;DHT22;2930;42.678;23.312;2023-05-16T08:50:38;17.90;84.10
5808;DHT22;2930;42.678;23.312;2023-05-16T08:53:05;18.00;83.60
5808;DHT22;2930;42.678;23.312;2023-05-16T08:55:32;18.10;83.60
5808;DHT22;2930;42.678;23.312;2023-05-16T08:57:58;18.20;84.00
5808;DHT22;2930;42.678;23.312;2023-05-16T09:00:24;18.40;82.90
5808;DHT22;2930;42.678;23.312;2023-05-16T09:02:51;18.50;82.40
5808;DHT22;2930;42.678;23.312;2023-05-16T09:05:17;18.60;82.00
5808;DHT22;2930;42.678;23.312;2023-05-16T09:07:42;18.80;81.90
5808;DHT22;2930;42.678;23.312;2023-05-16T09:10:08;18.90;81.70
5808;DHT22;2930;42.678;23.312;2023-05-16T09:12:34;19.00;81.80
5808;DHT22;2930;42.678;23.312;2023-05-16T09:15:03;19.00;80.90
5808;DHT22;2930;42.678;23.312;2023-05-16T09:17:36;19.10;81.10
5808;DHT22;2930;42.678;23.312;2023-05-16T09:22:34;19.10;79.90
5808;DHT22;2930;42.678;23.312;2023-05-16T09:25:00;19.10;79.40
5808;DHT22;2930;42.678;23.312;2023-05-16T09:27:26;19.10;79.10
5808;DHT22;2930;42.678;23.312;2023-05-16T09:29:55;19.10;80.10
5808;DHT22;2930;42.678;23.312;2023-05-16T09:32:22;19.10;79.90
5808;DHT22;2930;42.678;23.312;2023-05-16T09:34:48;19.00;79.70
5808;DHT22;2930;42.678;23.312;2023-05-16T09:37:14;19.00;80.10
5808;DHT22;2930;42.678;23.312;2023-05-16T09:39:46;19.00;79.90
5808;DHT22;2930;42.678;23.312;2023-05-16T09:42:14;19.10;79.80
5808;DHT22;2930;42.678;23.312;2023-05-16T09:44:40;19.10;80.30
5808;DHT22;2930;42.678;23.312;2023-05-16T09:47:06;19.20;80.10
5808;DHT22;2930;42.678;23.312;2023-05-16T09:49:31;19.20;80.20
5808;DHT22;2930;42.678;23.312;2023-05-16T09:52:00;19.20;79.80
5808;DHT22;2930;42.678;23.312;2023-05-16T09:54:29;19.20;80.20
5808;DHT22;2930;42.678;23.312;2023-05-16T09:56:56;19.20;80.30
5808;DHT22;2930;42.678;23.312;2023-05-16T09:59:21;19.20;79.30
5808;DHT22;2930;42.678;23.312;2023-05-16T10:01:47;19.20;79.70
5808;DHT22;2930;42.678;23.312;2023-05-16T10:04:13;19.20;79.70
5808;DHT22;2930;42.678;23.312;2023-05-16T10:06:40;19.10;79.50
5808;DHT22;2930;42.678;23.312;2023-05-16T10:09:12;19.10;79.90
5808;DHT22;2930;42.678;23.312;2023-05-16T10:11:41;19.10;79.70
5808;DHT22;2930;42.678;23.312;2023-05-16T10:14:08;19.10;80.00
5808;DHT22;2930;42.678;23.312;2023-05-16T10:16:34;19.20;79.70
5808;DHT22;2930;42.678;23.312;2023-05-16T10:19:00;19.20;80.20
5808;DHT22;2930;42.678;23.312;2023-05-16T10:21:27;19.30;80.00
5808;DHT22;2930;42.678;23.312;2023-05-16T10:23:53;19.30;79.70
5808;DHT22;2930;42.678;23.312;2023-05-16T10:26:21;19.30;79.90
5808;DHT22;2930;42.678;23.312;2023-05-16T10:28:46;19.30;79.90
5808;DHT22;2930;42.678;23.312;2023-05-16T10:31:12;19.30;79.10
5808;DHT22;2930;42.678;23.312;2023-05-16T10:33:39;19.30;79.40
5808;DHT22;2930;42.678;23.312;2023-05-16T10:36:06;19.40;79.80
5808;DHT22;2930;42.678;23.312;2023-05-16T10:38:32;19.40;79.40
5808;DHT22;2930;42.678;23.312;2023-05-16T10:40:59;19.30;79.80
5808;DHT22;2930;42.678;23.312;2023-05-16T10:43:25;19.40;79.70
5808;DHT22;2930;42.678;23.312;2023-05-16T10:45:55;19.40;80.50
5808;DHT22;2930;42.678;23.312;2023-05-16T10:48:28;19.40;80.70
5808;DHT22;2930;42.678;23.312;2023-05-16T10:50:53;19.60;80.30
5808;DHT22;2930;42.678;23.312;2023-05-16T10:58:17;19.90;79.80
5808;DHT22;2930;42.678;23.312;2023-05-16T11:00:43;20.00;79.50
5808;DHT22;2930;42.678;23.312;2023-05-16T11:03:18;20.10;78.60
5808;DHT22;2930;42.678;23.312;2023-05-16T11:05:49;20.10;78.20
5808;DHT22;2930;42.678;23.312;2023-05-16T11:08:16;20.10;78.40
5808;DHT22;2930;42.678;23.312;2023-05-16T11:10:42;20.10;78.20
5808;DHT22;2930;42.678;23.312;2023-05-16T11:13:07;20.00;78.40
5808;DHT22;2930;42.678;23.312;2023-05-16T11:15:33;20.00;78.80
5808;DHT22;2930;42.678;23.312;2023-05-16T11:18:05;19.90;79.20
5808;DHT22;2930;42.678;23.312;2023-05-16T11:20:32;19.80;79.50
5808;DHT22;2930;42.678;23.312;2023-05-16T11:25:46;19.80;78.90
5808;DHT22;2930;42.678;23.312;2023-05-16T11:28:13;19.80;79.00
5808;DHT22;2930;42.678;23.312;2023-05-16T11:30:42;19.90;78.30
5808;DHT22;2930;42.678;23.312;2023-05-16T11:33:08;19.90;78.50
5808;DHT22;2930;42.678;23.312;2023-05-16T11:35:34;20.00;78.40
5808;DHT22;2930;42.678;23.312;2023-05-16T11:38:01;20.10;78.40
5808;DHT22;2930;42.678;23.312;2023-05-16T11:40:27;20.30;78.50
5808;DHT22;2930;42.678;23.312;2023-05-16T11:42:52;20.40;78.70
5808;DHT22;2930;42.678;23.312;2023-05-16T11:45:18;20.40;78.90
5808;DHT22;2930;42.678;23.312;2023-05-16T11:47:46;20.50;79.40
5808;DHT22;2930;42.678;23.312;2023-05-16T11:50:15;20.60;79.10
5808;DHT22;2930;42.678;23.312;2023-05-16T11:52:42;20.60;78.50
5808;DHT22;2930;42.678;23.312;2023-05-16T11:55:08;20.70;78.40
5808;DHT22;2930;42.678;23.312;2023-05-16T11:57:36;20.70;78.40
5808;DHT22;2930;42.678;23.312;2023-05-16T12:00:03;20.80;78.40
5808;DHT22;2930;42.678;23.312;2023-05-16T12:02:32;20.90;78.60
5808;DHT22;2930;42.678;23.312;2023-05-16T12:04:57;21.00;79.20
5808;DHT22;2930;42.678;23.312;2023-05-16T12:07:26;21.20;78.80
5808;DHT22;2930;42.678;23.312;2023-05-16T12:09:52;21.40;78.00
5808;DHT22;2930;42.678;23.312;2023-05-16T12:12:19;21.60;76.70
5808;DHT22;2930;42.678;23.312;2023-05-16T12:14:44;21.90;76.00
5808;DHT22;2930;42.678;23.312;2023-05-16T12:17:10;22.10;75.10
5808;DHT22;2930;42.678;23.312;2023-05-16T12:19:35;22.30;75.10
5808;DHT22;2930;42.678;23.312;2023-05-16T12:22:01;22.50;73.90
5808;DHT22;2930;42.678;23.312;2023-05-16T12:24:30;22.70;73.70
5808;DHT22;2930;42.678;23.312;2023-05-16T12:26:56;22.90;73.20
5808;DHT22;2930;42.678;23.312;2023-05-16T12:29:23;23.20;73.20
5808;DHT22;2930;42.678;23.312;2023-05-16T12:31:51;23.40;72.50
5808;DHT22;2930;42.678;23.312;2023-05-16T12:34:17;23.50;72.00
5808;DHT22;2930;42.678;23.312;2023-05-16T12:36:44;23.60;71.60
5808;DHT22;2930;42.678;23.312;2023-05-16T12:39:14;23.70;72.00
5808;DHT22;2930;42.678;23.312;2023-05-16T12:41:40;23.70;71.40
5808;DHT22;2930;42.678;23.312;2023-05-16T12:44:13;23.60;71.90
5808;DHT22;2930;42.678;23.312;2023-05-16T12:46:45;23.50;71.90
5808;DHT22;2930;42.678;23.312;2023-05-16T12:49:11;23.30;71.80
5808;DHT22;2930;42.678;23.312;2023-05-16T12:51:37;23.20;72.30
5808;DHT22;2930;42.678;23.312;2023-05-16T12:54:10;23.00;72.40
5808;DHT22;2930;42.678;23.312;2023-05-16T12:56:39;22.90;72.30
5808;DHT22;2930;42.678;23.312;2023-05-16T12:59:05;22.80;72.40
5808;DHT22;2930;42.678;23.312;2023-05-16T13:01:30;22.70;72.70
5808;DHT22;2930;42.678;23.312;2023-05-16T13:03:56;22.70;72.90
5808;DHT22;2930;42.678;23.312;2023-05-16T13:06:22;22.50;73.00
5808;DHT22;2930;42.678;23.312;2023-05-16T13:08:47;22.40;73.20
5808;DHT22;2930;42.678;23.312;2023-05-16T13:11:13;22.10;73.50
5808;DHT22;2930;42.678;23.312;2023-05-16T13:13:38;22.00;73.90
5808;DHT22;2930;42.678;23.312;2023-05-16T13:16:04;21.70;74.50
5808;DHT22;2930;42.678;23.312;2023-05-16T13:18:30;21.70;74.70
5808;DHT22;2930;42.678;23.312;2023-05-16T13:20:55;21.70;75.30
5808;DHT22;2930;42.678;23.312;2023-05-16T13:23:21;21.50;75.50
5808;DHT22;2930;42.678;23.312;2023-05-16T13:25:46;21.40;75.90
5808;DHT22;2930;42.678;23.312;2023-05-16T13:28:12;20.90;76.70
5808;DHT22;2930;42.678;23.312;2023-05-16T13:30:38;20.80;77.30
5808;DHT22;2930;42.678;23.312;2023-05-16T13:33:03;20.70;77.70
5808;DHT22;2930;42.678;23.312;2023-05-16T13:35:29;20.60;78.20
5808;DHT22;2930;42.678;23.312;2023-05-16T13:37:54;20.60;78.30
5808;DHT22;2930;42.678;23.312;2023-05-16T13:40:20;20.60;78.60
5808;DHT22;2930;42.678;23.312;2023-05-16T13:42:45;20.60;78.60
5808;DHT22;2930;42.678;23.312;2023-05-16T13:45:11;20.60;78.70
5808;DHT22;2930;42.678;23.312;2023-05-16T13:47:37;20.60;79.00
5808;DHT22;2930;42.678;23.312;2023-05-16T13:50:02;20.60;79.10
5808;DHT22;2930;42.678;23.312;2023-05-16T13:52:32;20.60;79.00
5808;DHT22;2930;42.678;23.312;2023-05-16T13:54:57;20.60;78.90
5808;DHT22;2930;42.678;23.312;2023-05-16T13:57:23;20.60;78.70
5808;DHT22;2930;42.678;23.312;2023-05-16T13:59:49;20.50;78.60
5808;DHT22;2930;42.678;23.312;2023-05-16T14:02:14;20.50;78.50
5808;DHT22;2930;42.678;23.312;2023-05-16T14:04:40;20.50;78.50
5808;DHT22;2930;42.678;23.312;2023-05-16T14:07:05;20.50;78.60
5808;DHT22;2930;42.678;23.312;2023-05-16T14:09:31;20.50;78.40
5808;DHT22;2930;42.678;23.312;2023-05-16T14:11:59;20.20;80.00
5808;DHT22;2930;42.678;23.312;2023-05-16T14:14:27;19.90;81.20
5808;DHT22;2930;42.678;23.312;2023-05-16T14:16:52;19.90;81.00
5808;DHT22;2930;42.678;23.312;2023-05-16T14:19:18;19.60;82.30
5808;DHT22;2930;42.678;23.312;2023-05-16T14:21:43;19.40;83.20
5808;DHT22;2930;42.678;23.312;2023-05-16T14:24:09;19.50;83.00
5808;DHT22;2930;42.678;23.312;2023-05-16T14:26:34;19.60;83.40
5808;DHT22;2930;42.678;23.312;2023-05-16T14:29:00;19.60;83.80
5808;DHT22;2930;42.678;23.312;2023-05-16T14:31:25;19.70;83.40
5808;DHT22;2930;42.678;23.312;2023-05-16T14:33:51;19.70;83.50
5808;DHT22;2930;42.678;23.312;2023-05-16T14:36:16;19.70;83.90
5808;DHT22;2930;42.678;23.312;2023-05-16T14:38:42;19.80;83.40
5808;DHT22;2930;42.678;23.312;2023-05-16T14:41:08;19.80;83.00
5808;DHT22;2930;42.678;23.312;2023-05-16T14:43:33;19.80;83.40
5808;DHT22;2930;42.678;23.312;2023-05-16T14:45:59;19.90;83.20
5808;DHT22;2930;42.678;23.312;2023-05-16T14:48:24;19.80;83.80
5808;DHT22;2930;42.678;23.312;2023-05-16T14:50:50;19.90;82.90
5808;DHT22;2930;42.678;23.312;2023-05-16T14:53:16;19.80;83.50
5808;DHT22;2930;42.678;23.312;2023-05-16T14:55:41;19.80;83.90
5808;DHT22;2930;42.678;23.312;2023-05-16T14:58:07;19.80;84.00
5808;DHT22;2930;42.678;23.312;2023-05-16T15:00:32;19.70;84.00
5808;DHT22;2930;42.678;23.312;2023-05-16T15:02:58;19.70;84.00
5808;DHT22;2930;42.678;23.312;2023-05-16T15:05:23;19.60;84.40
5808;DHT22;2930;42.678;23.312;2023-05-16T15:07:50;19.60;84.80
5808;DHT22;2930;42.678;23.312;2023-05-16T15:10:16;19.60;84.60
5808;DHT22;2930;42.678;23.312;2023-05-16T15:12:41;19.60;85.40
5808;DHT22;2930;42.678;23.312;2023-05-16T15:15:08;19.50;85.50
5808;DHT22;2930;42.678;23.312;2023-05-16T15:17:36;19.50;84.40
5808;DHT22;2930;42.678;23.312;2023-05-16T15:20:02;19.50;85.10
5808;DHT22;2930;42.678;23.312;2023-05-16T15:22:28;19.10;87.70
5808;DHT22;2930;42.678;23.312;2023-05-16T15:24:54;18.90;88.50
5808;DHT22;2930;42.678;23.312;2023-05-16T15:27:20;18.80;90.30
5808;DHT22;2930;42.678;23.312;2023-05-16T15:29:46;18.90;88.90
5808;DHT22;2930;42.678;23.312;2023-05-16T15:32:11;18.80;90.00
5808;DHT22;2930;42.678;23.312;2023-05-16T15:34:37;18.60;89.50
5808;DHT22;2930;42.678;23.312;2023-05-16T15:37:03;18.70;88.90
5808;DHT22;2930;42.678;23.312;2023-05-16T15:39:29;18.40;92.00
5808;DHT22;2930;42.678;23.312;2023-05-16T15:41:54;18.20;92.90
5808;DHT22;2930;42.678;23.312;2023-05-16T15:44:20;18.20;93.20
5808;DHT22;2930;42.678;23.312;2023-05-16T15:46:45;17.90;95.10
5808;DHT22;2930;42.678;23.312;2023-05-16T15:49:11;17.80;95.80
5808;DHT22;2930;42.678;23.312;2023-05-16T15:51:37;17.80;95.50
5808;DHT22;2930;42.678;23.312;2023-05-16T15:54:03;17.90;94.00
5808;DHT22;2930;42.678;23.312;2023-05-16T15:56:29;18.00;93.40
5808;DHT22;2930;42.678;23.312;2023-05-16T15:58:54;18.00;93.60